sensor_id;sensor_type;location;lat;lon;timestamp;temperature;humidity
74488;DHT22;63019;51.080;13.642;2023-02-03T00:00:34;3.50;99.90
74488;DHT22;63019;51.080;13.642;2023-02-03T00:01:36;3.50;99.90
74488;DHT22;63019;51.080;13.642;2023-02-03T00:02:38;3.50;99.90
74488;DHT22;63019;51.080;13.642;2023-02-03T00:03:40;3.50;99.90
74488;DHT22;63019;51.080;13.642;2023-02-03T00:04:42;3.50;99.90
74488;DHT22;63019;51.080;13.642;2023-02-03T00:05:44;3.50;99.90
74488;DHT22;63019;51.080;13.642;2023-02-03T00:06:47;3.50;99.90
74488;DHT22;63019;51.080;13.642;2023-02-03T00:07:50;3.50;99.90
74488;DHT22;63019;51.080;13.642;2023-02-03T00:08:53;3.50;99.90
74488;DHT22;63019;51.080;13.642;2023-02-03T00:09:56;3.50;99.90
74488;DHT22;63019;51.080;13.642;2023-02-03T00:10:58;3.50;99.90
74488;DHT22;63019;51.080;13.642;2023-02-03T00:12:00;3.50;99.90
74488;DHT22;63019;51.080;13.642;2023-02-03T00:13:02;3.50;99.90
74488;DHT22;63019;51.080;13.642;2023-02-03T00:14:04;3.50;99.90
74488;DHT22;63019;51.080;13.642;2023-02-03T00:15:08;3.50;99.90
74488;DHT22;63019;51.080;13.642;2023-02-03T00:16:10;3.50;99.90
74488;DHT22;63019;51.080;13.642;2023-02-03T00:17:12;3.50;99.90
74488;DHT22;63019;51.080;13.642;2023-02-03T00:18:15;3.50;99.90
74488;DHT22;63019;51.080;13.642;2023-02-03T00:19:17;3.50;99.90
74488;DHT22;63019;51.080;13.642;2023-02-03T00:20:19;3.50;99.90
74488;DHT22;63019;51.080;13.642;2023-02-03T00:21:21;3.50;99.90
74488;DHT22;63019;51.080;13.642;2023-02-03T00:22:23;3.50;99.90
74488;DHT22;63019;51.080;13.642;2023-02-03T00:23:25;3.60;99.90
74488;DHT22;63019;51.080;13.642;2023-02-03T00:24:30;3.50;99.90
74488;DHT22;63019;51.080;13.642;2023-02-03T00:25:32;3.60;99.90
74488;DHT22;63019;51.080;13.642;2023-02-03T00:26:34;3.60;99.90
74488;DHT22;63019;51.080;13.642;2023-02-03T00:27:35;3.60;99.90
74488;DHT22;63019;51.080;13.642;2023-02-03T00:28:37;3.60;99.90
74488;DHT22;63019;51.080;13.642;2023-02-03T00:29:39;3.60;99.90
74488;DHT22;63019;51.080;13.642;2023-02-03T00:30:41;3.50;99.90
74488;DHT22;63019;51.080;13.642;2023-02-03T00:31:43;3.50;99.90
74488;DHT22;63019;51.080;13.642;2023-02-03T00:32:45;3.50;99.90
74488;DHT22;63019;51.080;13.642;2023-02-03T00:33:47;3.50;99.90
74488;DHT22;63019;51.080;13.642;2023-02-03T00:34:53;3.50;99.90
74488;DHT22;63019;51.080;13.642;2023-02-03T00:35:55;3.40;99.90
74488;DHT22;63019;51.080;13.642;2023-02-03T00:36:57;3.40;99.90
74488;DHT22;63019;51.080;13.642;2023-02-03T00:37:59;3.50;99.90
74488;DHT22;63019;51.080;13.642;2023-02-03T00:39:01;3.40;99.90
74488;DHT22;63019;51.080;13.642;2023-02-03T00:40:03;3.40;99.90
74488;DHT22;63019;51.080;13.642;2023-02-03T00:41:05;3.40;99.90
74488;DHT22;63019;51.080;13.642;2023-02-03T00:42:07;3.40;99.90
74488;DHT22;63019;51.080;13.642;2023-02-03T00:43:09;3.40;99.90
74488;DHT22;63019;51.080;13.642;2023-02-03T00:44:11;3.40;99.90
74488;DHT22;63019;51.080;13.642;2023-02-03T00:45:12;3.40;99.90
74488;DHT22;63019;51.080;13.642;2023-02-03T00:46:15;3.40;99.90
74488;DHT22;63019;51.080;13.642;2023-02-03T00:47:17;3.40;99.90
74488;DHT22;63019;51.080;13.642;2023-02-03T00:48:19;3.40;99.90
74488;DHT22;63019;51.080;13.642;2023-02-03T00:49:21;3.30;99.90
74488;DHT22;63019;51.080;13.642;2023-02-03T00:50:23;3.30;99.90
74488;DHT22;63019;51.080;13.642;2023-02-03T00:51:25;3.30;99.90
74488;DHT22;63019;51.080;13.642;2023-02-03T00:52:27;3.30;99.90
74488;DHT22;63019;51.080;13.642;2023-02-03T00:53:29;3.30;99.90
74488;DHT22;63019;51.080;13.642;2023-02-03T00:54:30;3.30;99.90
74488;DHT22;63019;51.080;13.642;2023-02-03T00:55:34;3.30;99.90
74488;DHT22;63019;51.080;13.642;2023-02-03T00:56:36;3.20;99.90
74488;DHT22;63019;51.080;13.642;2023-02-03T00:57:37;3.20;99.90
74488;DHT22;63019;51.080;13.642;2023-02-03T00:58:40;3.20;99.90
74488;DHT22;63019;51.080;13.642;2023-02-03T00:59:42;3.20;99.90
74488;DHT22;63019;51.080;13.642;2023-02-03T01:00:44;3.20;99.90
74488;DHT22;63019;51.080;13.642;2023-02-03T01:01:45;3.20;99.90
74488;DHT22;63019;51.080;13.642;2023-02-03T01:02:50;3.20;99.90
74488;DHT22;63019;51.080;13.642;2023-02-03T01:03:54;3.20;99.90
74488;DHT22;63019;51.080;13.642;2023-02-03T01:04:56;3.20;99.90
74488;DHT22;63019;51.080;13.642;2023-02-03T01:06:17;3.10;99.90
74488;DHT22;63019;51.080;13.642;2023-02-03T01:07:19;3.10;99.90
74488;DHT22;63019;51.080;13.642;2023-02-03T01:08:21;3.10;99.90
74488;DHT22;63019;51.080;13.642;2023-02-03T01:09:25;3.10;99.90
74488;DHT22;63019;51.080;13.642;2023-02-03T01:10:27;3.10;99.90
74488;DHT22;63019;51.080;13.642;2023-02-03T01:11:29;3.10;99.90
74488;DHT22;63019;51.080;13.642;2023-02-03T01:12:32;3.10;99.90
74488;DHT22;63019;51.080;13.642;2023-02-03T01:13:34;3.10;99.90
74488;DHT22;63019;51.080;13.642;2023-02-03T01:14:36;3.10;99.90
74488;DHT22;63019;51.080;13.642;2023-02-03T01:15:45;3.00;99.90
74488;DHT22;63019;51.080;13.642;2023-02-03T01:16:48;3.00;99.90
74488;DHT22;63019;51.080;13.642;2023-02-03T01:17:50;3.00;99.90
74488;DHT22;63019;51.080;13.642;2023-02-03T01:18:51;3.00;99.90
74488;DHT22;63019;51.080;13.642;2023-02-03T01:19:53;3.00;99.90
74488;DHT22;63019;51.080;13.642;2023-02-03T01:20:55;3.00;99.90
74488;DHT22;63019;51.080;13.642;2023-02-03T01:21:57;3.00;99.90
74488;DHT22;63019;51.080;13.642;2023-02-03T01:22:59;2.90;99.90
74488;DHT22;63019;51.080;13.642;2023-02-03T01:24:01;2.90;99.90
74488;DHT22;63019;51.080;13.642;2023-02-03T01:25:03;2.90;99.90
74488;DHT22;63019;51.080;13.642;2023-02-03T01:26:10;2.90;99.90
74488;DHT22;63019;51.080;13.642;2023-02-03T01:27:12;2.90;99.90
74488;DHT22;63019;51.080;13.642;2023-02-03T01:28:14;2.90;99.90
74488;DHT22;63019;51.080;13.642;2023-02-03T01:29:15;2.80;99.90
74488;DHT22;63019;51.080;13.642;2023-02-03T01:30:17;2.80;99.90
74488;DHT22;63019;51.080;13.642;2023-02-03T01:31:25;2.80;99.90
74488;DHT22;63019;51.080;13.642;2023-02-03T01:32:27;2.80;99.90
74488;DHT22;63019;51.080;13.642;2023-02-03T01:33:28;2.80;99.90
74488;DHT22;63019;51.080;13.642;2023-02-03T01:34:30;2.80;99.90
74488;DHT22;63019;51.080;13.642;2023-02-03T01:35:33;2.70;99.90
74488;DHT22;63019;51.080;13.642;2023-02-03T01:36:36;2.80;99.90
74488;DHT22;63019;51.080;13.642;2023-02-03T01:37:38;2.80;99.90
74488;DHT22;63019;51.080;13.642;2023-02-03T01:38:39;2.80;99.90
74488;DHT22;63019;51.080;13.642;2023-02-03T01:39:42;2.80;99.90
74488;DHT22;63019;51.080;13.642;2023-02-03T01:40:44;2.80;99.90
74488;DHT22;63019;51.080;13.642;2023-02-03T01:41:46;2.80;99.90
74488;DHT22;63019;51.080;13.642;2023-02-03T01:42:47;2.80;99.90
74488;DHT22;63019;51.080;13.642;2023-02-03T01:43:52;2.80;99.90
74488;DHT22;63019;51.080;13.642;2023-02-03T01:44:54;2.80;99.90
74488;DHT22;63019;51.080;13.642;2023-02-03T01:45:57;2.80;99.90
74488;DHT22;63019;51.080;13.642;2023-02-03T01:47:00;2.80;99.90
74488;DHT22;63019;51.080;13.642;2023-02-03T01:48:03;2.80;99.90
74488;DHT22;63019;51.080;13.642;2023-02-03T01:49:08;2.80;99.90
74488;DHT22;63019;51.080;13.642;2023-02-03T01:50:22;2.80;99.90
74488;DHT22;63019;51.080;13.642;2023-02-03T01:51:25;2.80;99.90
74488;DHT22;63019;51.080;13.642;2023-02-03T01:52:28;2.80;99.90
74488;DHT22;63019;51.080;13.642;2023-02-03T01:53:32;2.80;99.90
74488;DHT22;63019;51.080;13.642;2023-02-03T01:54:38;2.80;99.90
74488;DHT22;63019;51.080;13.642;2023-02-03T01:55:43;2.80;99.90
74488;DHT22;63019;51.080;13.642;2023-02-03T01:56:52;2.80;99.90
74488;DHT22;63019;51.080;13.642;2023-02-03T01:58:00;2.80;99.90
74488;DHT22;63019;51.080;13.642;2023-02-03T01:59:03;2.80;99.90
74488;DHT22;63019;51.080;13.642;2023-02-03T02:00:06;2.90;99.90
74488;DHT22;63019;51.080;13.642;2023-02-03T02:01:08;2.90;99.90
74488;DHT22;63019;51.080;13.642;2023-02-03T02:02:10;2.90;99.90
74488;DHT22;63019;51.080;13.642;2023-02-03T02:03:13;2.90;99.90
74488;DHT22;63019;51.080;13.642;2023-02-03T02:04:16;2.90;99.90
74488;DHT22;63019;51.080;13.642;2023-02-03T02:05:29;2.90;99.90
74488;DHT22;63019;51.080;13.642;2023-02-03T02:06:32;2.90;99.90
74488;DHT22;63019;51.080;13.642;2023-02-03T02:07:36;2.90;99.90
74488;DHT22;63019;51.080;13.642;2023-02-03T02:08:40;2.90;99.90
74488;DHT22;63019;51.080;13.642;2023-02-03T02:09:43;2.90;99.90
74488;DHT22;63019;51.080;13.642;2023-02-03T02:10:46;2.90;99.90
74488;DHT22;63019;51.080;13.642;2023-02-03T02:11:47;2.90;99.90
74488;DHT22;63019;51.080;13.642;2023-02-03T02:12:49;2.90;99.90
74488;DHT22;63019;51.080;13.642;2023-02-03T02:13:54;2.90;99.90
74488;DHT22;63019;51.080;13.642;2023-02-03T02:14:56;2.90;99.90
74488;DHT22;63019;51.080;13.642;2023-02-03T02:16:13;2.90;99.90
74488;DHT22;63019;51.080;13.642;2023-02-03T02:20:37;2.90;99.90
74488;DHT22;63019;51.080;13.642;2023-02-03T02:31:56;2.90;99.90
74488;DHT22;63019;51.080;13.642;2023-02-03T02:34:39;2.90;99.90
74488;DHT22;63019;51.080;13.642;2023-02-03T02:36:58;2.80;99.90
74488;DHT22;63019;51.080;13.642;2023-02-03T02:39:12;2.80;99.90
74488;DHT22;63019;51.080;13.642;2023-02-03T02:44:29;2.80;99.90
74488;DHT22;63019;51.080;13.642;2023-02-03T02:45:48;2.80;99.90
74488;DHT22;63019;51.080;13.642;2023-02-03T02:46:54;2.80;99.90
74488;DHT22;63019;51.080;13.642;2023-02-03T02:48:06;2.80;99.90
74488;DHT22;63019;51.080;13.642;2023-02-03T02:49:33;2.80;99.90
74488;DHT22;63019;51.080;13.642;2023-02-03T02:50:40;2.80;99.90
74488;DHT22;63019;51.080;13.642;2023-02-03T02:51:44;2.80;99.90
74488;DHT22;63019;51.080;13.642;2023-02-03T02:52:49;2.90;99.90
74488;DHT22;63019;51.080;13.642;2023-02-03T02:53:55;3.00;99.90
74488;DHT22;63019;51.080;13.642;2023-02-03T02:55:07;3.00;99.90
74488;DHT22;63019;51.080;13.642;2023-02-03T02:56:12;3.10;99.90
74488;DHT22;63019;51.080;13.642;2023-02-03T02:57:17;3.10;99.90
74488;DHT22;63019;51.080;13.642;2023-02-03T02:58:20;3.20;99.90
74488;DHT22;63019;51.080;13.642;2023-02-03T02:59:24;3.30;99.90
74488;DHT22;63019;51.080;13.642;2023-02-03T03:00:29;3.40;99.90
74488;DHT22;63019;51.080;13.642;2023-02-03T03:01:31;3.40;99.90
74488;DHT22;63019;51.080;13.642;2023-02-03T03:02:34;3.50;99.90
74488;DHT22;63019;51.080;13.642;2023-02-03T03:03:36;3.50;99.90
74488;DHT22;63019;51.080;13.642;2023-02-03T03:04:42;3.50;99.90
74488;DHT22;63019;51.080;13.642;2023-02-03T03:06:34;3.50;99.90
74488;DHT22;63019;51.080;13.642;2023-02-03T03:07:21;3.60;99.90
74488;DHT22;63019;51.080;13.642;2023-02-03T03:09:58;3.60;99.90
74488;DHT22;63019;51.080;13.642;2023-02-03T03:11:02;3.70;99.90
74488;DHT22;63019;51.080;13.642;2023-02-03T03:13:18;3.70;99.90
74488;DHT22;63019;51.080;13.642;2023-02-03T03:14:22;3.70;99.90
74488;DHT22;63019;51.080;13.642;2023-02-03T03:15:27;3.70;99.90
74488;DHT22;63019;51.080;13.642;2023-02-03T03:16:32;3.80;99.90
74488;DHT22;63019;51.080;13.642;2023-02-03T03:17:41;3.80;99.90
74488;DHT22;63019;51.080;13.642;2023-02-03T03:18:51;3.80;99.90
74488;DHT22;63019;51.080;13.642;2023-02-03T03:19:56;3.80;99.90
74488;DHT22;63019;51.080;13.642;2023-02-03T03:20:59;3.90;99.90
74488;DHT22;63019;51.080;13.642;2023-02-03T03:22:08;4.00;99.90
74488;DHT22;63019;51.080;13.642;2023-02-03T03:23:19;4.00;99.90
74488;DHT22;63019;51.080;13.642;2023-02-03T03:24:30;4.10;99.90
74488;DHT22;63019;51.080;13.642;2023-02-03T03:25:48;4.20;99.90
74488;DHT22;63019;51.080;13.642;2023-02-03T03:27:58;4.30;99.90
74488;DHT22;63019;51.080;13.642;2023-02-03T03:29:06;4.30;99.90
74488;DHT22;63019;51.080;13.642;2023-02-03T03:30:15;4.30;99.90
74488;DHT22;63019;51.080;13.642;2023-02-03T03:31:19;4.30;99.90
74488;DHT22;63019;51.080;13.642;2023-02-03T03:32:21;4.40;99.90
74488;DHT22;63019;51.080;13.642;2023-02-03T03:33:23;4.40;99.90
74488;DHT22;63019;51.080;13.642;2023-02-03T03:34:26;4.50;99.90
74488;DHT22;63019;51.080;13.642;2023-02-03T03:35:42;4.50;99.90
74488;DHT22;63019;51.080;13.642;2023-02-03T03:38:40;4.60;99.90
74488;DHT22;63019;51.080;13.642;2023-02-03T03:40:38;4.60;99.90
74488;DHT22;63019;51.080;13.642;2023-02-03T03:41:27;4.70;99.90
74488;DHT22;63019;51.080;13.642;2023-02-03T03:43:44;4.70;99.90
74488;DHT22;63019;51.080;13.642;2023-02-03T03:44:56;4.80;99.90
74488;DHT22;63019;51.080;13.642;2023-02-03T03:46:12;4.80;99.90
74488;DHT22;63019;51.080;13.642;2023-02-03T03:47:34;4.80;99.90
74488;DHT22;63019;51.080;13.642;2023-02-03T03:48:49;4.90;99.90
74488;DHT22;63019;51.080;13.642;2023-02-03T03:49:54;4.90;99.90
74488;DHT22;63019;51.080;13.642;2023-02-03T03:52:23;4.90;99.90
74488;DHT22;63019;51.080;13.642;2023-02-03T03:53:29;5.00;99.90
74488;DHT22;63019;51.080;13.642;2023-02-03T03:54:33;5.00;99.90
74488;DHT22;63019;51.080;13.642;2023-02-03T03:55:38;5.00;99.90
74488;DHT22;63019;51.080;13.642;2023-02-03T03:56:48;5.10;99.90
74488;DHT22;63019;51.080;13.642;2023-02-03T03:57:55;5.20;99.90
74488;DHT22;63019;51.080;13.642;2023-02-03T03:59:01;5.20;99.90
74488;DHT22;63019;51.080;13.642;2023-02-03T04:00:09;5.20;99.90
74488;DHT22;63019;51.080;13.642;2023-02-03T04:01:13;5.20;99.90
74488;DHT22;63019;51.080;13.642;2023-02-03T04:02:17;5.20;99.90
74488;DHT22;63019;51.080;13.642;2023-02-03T04:03:23;5.30;99.90
74488;DHT22;63019;51.080;13.642;2023-02-03T04:04:26;5.30;99.90
74488;DHT22;63019;51.080;13.642;2023-02-03T04:05:28;5.30;99.90
74488;DHT22;63019;51.080;13.642;2023-02-03T04:06:31;5.40;99.90
74488;DHT22;63019;51.080;13.642;2023-02-03T04:07:44;5.40;99.90
74488;DHT22;63019;51.080;13.642;2023-02-03T04:08:46;5.40;99.90
74488;DHT22;63019;51.080;13.642;2023-02-03T04:09:48;5.40;99.90
74488;DHT22;63019;51.080;13.642;2023-02-03T04:10:50;5.40;99.90
74488;DHT22;63019;51.080;13.642;2023-02-03T04:11:52;5.50;99.90
74488;DHT22;63019;51.080;13.642;2023-02-03T04:13:03;5.50;99.90
74488;DHT22;63019;51.080;13.642;2023-02-03T04:14:05;5.50;99.90
74488;DHT22;63019;51.080;13.642;2023-02-03T04:15:07;5.60;99.90
74488;DHT22;63019;51.080;13.642;2023-02-03T04:16:09;5.60;99.90
74488;DHT22;63019;51.080;13.642;2023-02-03T04:17:11;5.60;99.90
74488;DHT22;63019;51.080;13.642;2023-02-03T04:18:14;5.60;99.90
74488;DHT22;63019;51.080;13.642;2023-02-03T04:19:16;5.70;99.90
74488;DHT22;63019;51.080;13.642;2023-02-03T04:20:18;5.70;99.90
74488;DHT22;63019;51.080;13.642;2023-02-03T04:21:20;5.70;99.90
74488;DHT22;63019;51.080;13.642;2023-02-03T04:22:22;5.70;99.90
74488;DHT22;63019;51.080;13.642;2023-02-03T04:23:23;5.70;99.90
74488;DHT22;63019;51.080;13.642;2023-02-03T04:24:25;5.70;99.90
74488;DHT22;63019;51.080;13.642;2023-02-03T04:25:27;5.70;99.90
74488;DHT22;63019;51.080;13.642;2023-02-03T04:26:29;5.70;99.90
74488;DHT22;63019;51.080;13.642;2023-02-03T04:27:30;5.70;99.90
74488;DHT22;63019;51.080;13.642;2023-02-03T04:28:32;5.70;99.90
74488;DHT22;63019;51.080;13.642;2023-02-03T04:29:34;5.80;99.90
74488;DHT22;63019;51.080;13.642;2023-02-03T04:30:36;5.80;99.90
74488;DHT22;63019;51.080;13.642;2023-02-03T04:31:38;5.80;99.90
74488;DHT22;63019;51.080;13.642;2023-02-03T04:32:40;5.80;99.90
74488;DHT22;63019;51.080;13.642;2023-02-03T04:33:42;5.80;99.90
74488;DHT22;63019;51.080;13.642;2023-02-03T04:34:44;5.80;99.90
74488;DHT22;63019;51.080;13.642;2023-02-03T04:35:45;5.80;99.90
74488;DHT22;63019;51.080;13.642;2023-02-03T04:36:47;5.90;99.90
74488;DHT22;63019;51.080;13.642;2023-02-03T04:37:49;5.90;99.90
74488;DHT22;63019;51.080;13.642;2023-02-03T04:38:51;5.90;99.90
74488;DHT22;63019;51.080;13.642;2023-02-03T04:39:53;5.90;99.90
74488;DHT22;63019;51.080;13.642;2023-02-03T04:40:56;5.90;99.90
74488;DHT22;63019;51.080;13.642;2023-02-03T04:41:57;5.90;99.90
74488;DHT22;63019;51.080;13.642;2023-02-03T04:43:05;6.00;99.90
74488;DHT22;63019;51.080;13.642;2023-02-03T04:44:07;6.00;99.90
74488;DHT22;63019;51.080;13.642;2023-02-03T04:45:10;6.00;99.90
74488;DHT22;63019;51.080;13.642;2023-02-03T04:46:12;6.00;99.90
74488;DHT22;63019;51.080;13.642;2023-02-03T04:47:14;6.00;99.90
74488;DHT22;63019;51.080;13.642;2023-02-03T04:48:16;6.10;99.90
74488;DHT22;63019;51.080;13.642;2023-02-03T04:49:18;6.00;99.90
74488;DHT22;63019;51.080;13.642;2023-02-03T04:50:20;6.10;99.90
74488;DHT22;63019;51.080;13.642;2023-02-03T04:51:22;6.10;99.90
74488;DHT22;63019;51.080;13.642;2023-02-03T04:52:24;6.10;99.90
74488;DHT22;63019;51.080;13.642;2023-02-03T04:53:25;6.10;99.90
74488;DHT22;63019;51.080;13.642;2023-02-03T04:54:27;6.10;99.90
74488;DHT22;63019;51.080;13.642;2023-02-03T04:55:29;6.10;99.90
74488;DHT22;63019;51.080;13.642;2023-02-03T04:56:31;6.10;99.90
74488;DHT22;63019;51.080;13.642;2023-02-03T04:57:32;6.10;99.90
74488;DHT22;63019;51.080;13.642;2023-02-03T04:58:35;6.10;99.90
74488;DHT22;63019;51.080;13.642;2023-02-03T04:59:37;6.00;99.90
74488;DHT22;63019;51.080;13.642;2023-02-03T05:00:39;6.00;99.90
74488;DHT22;63019;51.080;13.642;2023-02-03T05:01:41;6.10;99.90
74488;DHT22;63019;51.080;13.642;2023-02-03T05:02:42;6.10;99.90
74488;DHT22;63019;51.080;13.642;2023-02-03T05:03:44;6.10;99.90
74488;DHT22;63019;51.080;13.642;2023-02-03T05:04:46;6.00;99.90
74488;DHT22;63019;51.080;13.642;2023-02-03T05:05:49;6.10;99.90
74488;DHT22;63019;51.080;13.642;2023-02-03T05:06:51;6.10;99.90
74488;DHT22;63019;51.080;13.642;2023-02-03T05:07:52;6.10;99.90
74488;DHT22;63019;51.080;13.642;2023-02-03T05:08:54;6.10;99.90
74488;DHT22;63019;51.080;13.642;2023-02-03T05:09:56;6.10;99.90
74488;DHT22;63019;51.080;13.642;2023-02-03T05:10:58;6.10;99.90
74488;DHT22;63019;51.080;13.642;2023-02-03T05:12:02;6.10;99.90
74488;DHT22;63019;51.080;13.642;2023-02-03T05:13:04;6.10;99.90
74488;DHT22;63019;51.080;13.642;2023-02-03T05:14:06;6.10;99.90
74488;DHT22;63019;51.080;13.642;2023-02-03T05:15:08;6.10;99.90
74488;DHT22;63019;51.080;13.642;2023-02-03T05:16:10;6.10;99.90
74488;DHT22;63019;51.080;13.642;2023-02-03T05:17:12;6.10;99.90
74488;DHT22;63019;51.080;13.642;2023-02-03T05:18:17;6.10;99.90
74488;DHT22;63019;51.080;13.642;2023-02-03T05:19:19;6.20;99.90
74488;DHT22;63019;51.080;13.642;2023-02-03T05:20:21;6.20;99.90
74488;DHT22;63019;51.080;13.642;2023-02-03T05:21:22;6.20;99.90
74488;DHT22;63019;51.080;13.642;2023-02-03T05:22:24;6.20;99.90
74488;DHT22;63019;51.080;13.642;2023-02-03T05:23:26;6.20;99.90
74488;DHT22;63019;51.080;13.642;2023-02-03T05:24:28;6.20;99.90
74488;DHT22;63019;51.080;13.642;2023-02-03T05:25:30;6.20;99.90
74488;DHT22;63019;51.080;13.642;2023-02-03T05:26:32;6.20;99.90
74488;DHT22;63019;51.080;13.642;2023-02-03T05:27:35;6.20;99.90
74488;DHT22;63019;51.080;13.642;2023-02-03T05:28:38;6.20;99.90
74488;DHT22;63019;51.080;13.642;2023-02-03T05:29:39;6.20;99.90
74488;DHT22;63019;51.080;13.642;2023-02-03T05:30:41;6.20;99.90
74488;DHT22;63019;51.080;13.642;2023-02-03T05:31:43;6.20;99.90
74488;DHT22;63019;51.080;13.642;2023-02-03T05:32:45;6.30;99.90
74488;DHT22;63019;51.080;13.642;2023-02-03T05:33:47;6.20;99.90
74488;DHT22;63019;51.080;13.642;2023-02-03T05:34:48;6.20;99.90
74488;DHT22;63019;51.080;13.642;2023-02-03T05:35:50;6.20;99.90
74488;DHT22;63019;51.080;13.642;2023-02-03T05:36:52;6.20;99.90
74488;DHT22;63019;51.080;13.642;2023-02-03T05:37:54;6.20;99.90
74488;DHT22;63019;51.080;13.642;2023-02-03T05:38:55;6.20;99.90
74488;DHT22;63019;51.080;13.642;2023-02-03T05:39:57;6.30;99.90
74488;DHT22;63019;51.080;13.642;2023-02-03T05:41:19;6.30;99.90
74488;DHT22;63019;51.080;13.642;2023-02-03T05:42:48;6.30;99.90
74488;DHT22;63019;51.080;13.642;2023-02-03T05:43:51;6.30;99.90
74488;DHT22;63019;51.080;13.642;2023-02-03T05:44:52;6.30;99.90
74488;DHT22;63019;51.080;13.642;2023-02-03T05:45:58;6.30;99.90
74488;DHT22;63019;51.080;13.642;2023-02-03T05:46:59;6.30;99.90
74488;DHT22;63019;51.080;13.642;2023-02-03T05:48:02;6.30;99.90
74488;DHT22;63019;51.080;13.642;2023-02-03T05:49:04;6.30;99.90
74488;DHT22;63019;51.080;13.642;2023-02-03T05:50:06;6.30;99.90
74488;DHT22;63019;51.080;13.642;2023-02-03T05:51:07;6.40;99.90
74488;DHT22;63019;51.080;13.642;2023-02-03T05:52:09;6.30;99.90
74488;DHT22;63019;51.080;13.642;2023-02-03T05:53:11;6.30;99.90
74488;DHT22;63019;51.080;13.642;2023-02-03T05:54:13;6.30;99.90
74488;DHT22;63019;51.080;13.642;2023-02-03T05:55:15;6.30;99.90
74488;DHT22;63019;51.080;13.642;2023-02-03T05:56:17;6.40;99.90
74488;DHT22;63019;51.080;13.642;2023-02-03T05:57:18;6.40;99.90
74488;DHT22;63019;51.080;13.642;2023-02-03T05:58:20;6.40;99.90
74488;DHT22;63019;51.080;13.642;2023-02-03T05:59:22;6.40;99.90
74488;DHT22;63019;51.080;13.642;2023-02-03T06:00:24;6.40;99.90
74488;DHT22;63019;51.080;13.642;2023-02-03T06:01:26;6.40;99.90
74488;DHT22;63019;51.080;13.642;2023-02-03T06:02:28;6.40;99.90
74488;DHT22;63019;51.080;13.642;2023-02-03T06:03:30;6.40;99.90
74488;DHT22;63019;51.080;13.642;2023-02-03T06:04:31;6.40;99.90
74488;DHT22;63019;51.080;13.642;2023-02-03T06:05:34;6.40;99.90
74488;DHT22;63019;51.080;13.642;2023-02-03T06:06:38;6.50;99.90
74488;DHT22;63019;51.080;13.642;2023-02-03T06:07:40;6.40;99.90
74488;DHT22;63019;51.080;13.642;2023-02-03T06:08:42;6.50;99.90
74488;DHT22;63019;51.080;13.642;2023-02-03T06:09:44;6.50;99.90
74488;DHT22;63019;51.080;13.642;2023-02-03T06:10:46;6.50;99.90
74488;DHT22;63019;51.080;13.642;2023-02-03T06:11:47;6.50;99.90
74488;DHT22;63019;51.080;13.642;2023-02-03T06:12:49;6.50;99.90
74488;DHT22;63019;51.080;13.642;2023-02-03T06:13:51;6.50;99.90
74488;DHT22;63019;51.080;13.642;2023-02-03T06:14:53;6.50;99.90
74488;DHT22;63019;51.080;13.642;2023-02-03T06:15:55;6.50;99.90
74488;DHT22;63019;51.080;13.642;2023-02-03T06:16:57;6.50;99.90
74488;DHT22;63019;51.080;13.642;2023-02-03T06:17:59;6.50;99.90
74488;DHT22;63019;51.080;13.642;2023-02-03T06:19:00;6.50;99.90
74488;DHT22;63019;51.080;13.642;2023-02-03T06:20:04;6.50;99.90
74488;DHT22;63019;51.080;13.642;2023-02-03T06:21:06;6.50;99.90
74488;DHT22;63019;51.080;13.642;2023-02-03T06:22:08;6.50;99.90
74488;DHT22;63019;51.080;13.642;2023-02-03T06:23:10;6.60;99.90
74488;DHT22;63019;51.080;13.642;2023-02-03T06:24:12;6.50;99.90
74488;DHT22;63019;51.080;13.642;2023-02-03T06:25:14;6.50;99.90
74488;DHT22;63019;51.080;13.642;2023-02-03T06:26:16;6.60;99.90
74488;DHT22;63019;51.080;13.642;2023-02-03T06:27:17;6.60;99.90
74488;DHT22;63019;51.080;13.642;2023-02-03T06:28:19;6.60;99.90
74488;DHT22;63019;51.080;13.642;2023-02-03T06:29:21;6.60;99.90
74488;DHT22;63019;51.080;13.642;2023-02-03T06:30:23;6.60;99.90
74488;DHT22;63019;51.080;13.642;2023-02-03T06:31:25;6.60;99.90
74488;DHT22;63019;51.080;13.642;2023-02-03T06:32:27;6.60;99.90
74488;DHT22;63019;51.080;13.642;2023-02-03T06:33:30;6.60;99.90
74488;DHT22;63019;51.080;13.642;2023-02-03T06:34:32;6.60;99.90
74488;DHT22;63019;51.080;13.642;2023-02-03T06:35:34;6.60;99.90
74488;DHT22;63019;51.080;13.642;2023-02-03T06:36:35;6.60;99.90
74488;DHT22;63019;51.080;13.642;2023-02-03T06:37:37;6.70;99.90
74488;DHT22;63019;51.080;13.642;2023-02-03T06:38:39;6.70;99.90
74488;DHT22;63019;51.080;13.642;2023-02-03T06:39:41;6.70;99.90
74488;DHT22;63019;51.080;13.642;2023-02-03T06:40:45;6.70;99.90
74488;DHT22;63019;51.080;13.642;2023-02-03T06:41:47;6.70;99.90
74488;DHT22;63019;51.080;13.642;2023-02-03T06:42:49;6.70;99.90
74488;DHT22;63019;51.080;13.642;2023-02-03T06:43:52;6.70;99.90
74488;DHT22;63019;51.080;13.642;2023-02-03T06:44:53;6.70;99.90
74488;DHT22;63019;51.080;13.642;2023-02-03T06:45:55;6.70;99.90
74488;DHT22;63019;51.080;13.642;2023-02-03T06:46:57;6.70;99.90
74488;DHT22;63019;51.080;13.642;2023-02-03T06:47:59;6.60;99.90
74488;DHT22;63019;51.080;13.642;2023-02-03T06:49:01;6.60;99.90
74488;DHT22;63019;51.080;13.642;2023-02-03T06:50:03;6.60;99.90
74488;DHT22;63019;51.080;13.642;2023-02-03T06:51:05;6.60;99.90
74488;DHT22;63019;51.080;13.642;2023-02-03T06:52:07;6.60;99.90
74488;DHT22;63019;51.080;13.642;2023-02-03T06:53:08;6.60;99.90
74488;DHT22;63019;51.080;13.642;2023-02-03T06:54:11;6.60;99.90
74488;DHT22;63019;51.080;13.642;2023-02-03T06:55:13;6.60;99.90
74488;DHT22;63019;51.080;13.642;2023-02-03T06:56:15;6.60;99.90
74488;DHT22;63019;51.080;13.642;2023-02-03T06:57:16;6.60;99.90
74488;DHT22;63019;51.080;13.642;2023-02-03T06:58:18;6.60;99.90
74488;DHT22;63019;51.080;13.642;2023-02-03T06:59:20;6.60;99.90
74488;DHT22;63019;51.080;13.642;2023-02-03T07:00:22;6.60;99.90
74488;DHT22;63019;51.080;13.642;2023-02-03T07:01:24;6.60;99.90
74488;DHT22;63019;51.080;13.642;2023-02-03T07:02:26;6.50;99.90
74488;DHT22;63019;51.080;13.642;2023-02-03T07:03:28;6.60;99.90
74488;DHT22;63019;51.080;13.642;2023-02-03T07:04:30;6.60;99.90
74488;DHT22;63019;51.080;13.642;2023-02-03T07:05:32;6.60;99.90
74488;DHT22;63019;51.080;13.642;2023-02-03T07:06:34;6.60;99.90
74488;DHT22;63019;51.080;13.642;2023-02-03T07:07:36;6.60;99.90
74488;DHT22;63019;51.080;13.642;2023-02-03T07:08:40;6.60;99.90
74488;DHT22;63019;51.080;13.642;2023-02-03T07:09:42;6.60;99.90
74488;DHT22;63019;51.080;13.642;2023-02-03T07:10:44;6.60;99.90
74488;DHT22;63019;51.080;13.642;2023-02-03T07:11:45;6.60;99.90